Terminal Aerodrome Forecast
Issued by NWS Wilmington, NC

Home | Current Version | Previous Version | Text Only | Print | Product List | Glossary On
Versions: 1 2 3 4 5 6 7 8 9 10 11 12 13
000
FTUS42 KILM 301720
TAFMYR
TAF
KMYR 301720Z 3018/3118 13010KT P6SM FEW050
     FM310300 16005KT P6SM SCT020
     FM311400 14009KT P6SM VCSH SCT025 BKN035=

USA.gov is the U.S. government's official web portal to all federal, state and local government web resources and services.